首页
METAR-TAF:

METAR-TAF

机场 :

盧布爾雅那約熱·普奇尼克機場

卢布尔雅那, 斯洛文尼亚

纬度: 46-13N, 经度: 014-29E, 海拔: 385米

当前天气观测

该预报发布于19分钟前的04:30 UTC
风速3节,风向西转西南
温度 6°C
湿度 100%
气压 1018 hPa
能见度10公里或以上
散云层高于3500英尺
多云层高于5000英尺

METAR: LJLJ 190430Z 24003KT 9999 SCT035 BKN050 06/06 Q1018 NOSIG

时间: 05:49 (04:49 UTC)

预报

该预报发布于2小时和49分钟前的02:00 UTC
预报有效从19日的 03点(UTC)到 20日的 03点(UTC)
风速2节,风向多变
能見度: 7000
少量云层高于3000英尺
多云层高于6000英尺
短暂存在
从 19日的 03点(UTC)到 20日的 03点(UTC)
多云层高于3000英尺
阴天层高于5000英尺
小雨

TAF: LJLJ 190200Z 1903/2003 VRB02KT 7000 FEW030 BKN060 TEMPO 1903/2003 -RA BKN030 OVC050

超过4000个机场的气象观测和天气预报(METAR&TAF报告)。

可查询的气象台以黄色和红色小点在地图上表示。

将鼠标移到小点上方,可查看气象台名称。

然后点击查看天气观测和预报。

如需切换地图:点击带黑十字的绿色按钮放大地图;点击带横线的绿色按钮缩小地图;或者点击绿色箭头查看邻近地区的地图。


METAR-TAF: